Time;durP1;ratioP1;P1;durP2;ratioP2;P2;SDS_P1;SDS_P2;PMS_P1;PMS_P2;Temp;Humidity;BMP_temperature;BMP_pressure;BME280_temperature;BME280_humidity;BME280_pressure;Samples;Min_cycle;Max_cycle;Signal;HPM_P1;HPM_P2
2022/04/13 00:02:38;;;;;;;3.65;1.75;;;14.40;99.90;;;;;;15636896;22;20019;-88
2022/04/13 00:08:43;;;;;;;3.22;1.95;;;14.40;99.90;;;;;;15634461;22;20459;-85
2022/04/13 00:14:45;;;;;;;3.63;1.80;;;14.20;99.90;;;;;;15609146;22;20023;-88
2022/04/13 00:20:48;;;;;;;3.97;1.90;;;14.20;99.90;;;;;;15639587;22;20077;-87
2022/04/13 00:26:51;;;;;;;4.97;1.70;;;14.10;99.90;;;;;;15636841;22;20023;-87
2022/04/13 00:32:53;;;;;;;3.92;1.92;;;14.00;99.90;;;;;;15638176;22;20094;-85
2022/04/13 00:38:55;;;;;;;4.45;1.77;;;14.00;99.90;;;;;;15633996;22;20019;-88
2022/04/13 00:44:57;;;;;;;3.00;1.48;;;14.00;99.90;;;;;;15624611;22;20047;-88
2022/04/13 00:50:59;;;;;;;5.40;1.83;;;13.90;99.90;;;;;;15617180;22;20027;-87
2022/04/13 00:57:07;;;;;;;5.47;1.50;;;13.80;99.90;;;;;;15603921;22;20106;-85
2022/04/13 01:03:09;;;;;;;6.43;1.90;;;13.80;99.90;;;;;;15636020;22;20023;-85
2022/04/13 01:09:13;;;;;;;2.80;1.70;;;13.90;99.90;;;;;;15612247;22;20108;-87
2022/04/13 01:15:15;;;;;;;2.95;1.50;;;14.00;99.90;;;;;;15634530;22;20031;-85
2022/04/13 01:21:19;;;;;;;4.32;1.42;;;14.00;99.90;;;;;;15608465;22;20102;-87
2022/04/13 01:27:21;;;;;;;5.20;1.40;;;14.10;99.90;;;;;;15608598;22;20057;-85
2022/04/13 01:33:27;;;;;;;4.22;1.48;;;14.20;99.90;;;;;;15632462;22;20059;-85
2022/04/13 01:39:29;;;;;;;3.72;1.67;;;14.10;99.90;;;;;;15632373;22;20062;-87
2022/04/13 01:45:31;;;;;;;3.35;1.50;;;14.10;99.90;;;;;;15632611;22;20126;-88
2022/04/13 01:51:33;;;;;;;5.50;1.73;;;14.10;99.90;;;;;;15630664;22;20027;-85
2022/04/13 01:57:36;;;;;;;2.50;1.30;;;14.00;99.90;;;;;;15605850;22;20034;-84
2022/04/13 02:03:38;;;;;;;2.30;1.25;;;13.90;99.90;;;;;;15631308;22;20081;-84
2022/04/13 02:09:40;;;;;;;5.28;3.10;;;13.70;99.90;;;;;;15606678;22;20437;-84
2022/04/13 02:15:42;;;;;;;7.03;3.17;;;13.60;99.90;;;;;;15608000;22;20023;-87
2022/04/13 02:21:44;;;;;;;5.70;3.40;;;13.30;99.90;;;;;;15635500;22;20454;-88
2022/04/13 02:27:45;;;;;;;5.28;2.95;;;12.80;99.90;;;;;;15609203;22;20137;-84
2022/04/13 02:33:51;;;;;;;6.13;3.65;;;12.60;99.90;;;;;;15604465;22;20130;-84
2022/04/13 02:39:52;;;;;;;6.03;3.20;;;12.30;99.90;;;;;;15631314;22;20068;-84
2022/04/13 02:45:54;;;;;;;6.90;3.75;;;12.00;99.90;;;;;;15602014;22;20115;-84
2022/04/13 02:51:56;;;;;;;5.88;4.18;;;12.00;99.90;;;;;;15629020;22;20546;-84
2022/04/13 02:57:58;;;;;;;6.50;3.40;;;11.90;99.90;;;;;;15605205;22;20491;-87
2022/04/13 03:04:00;;;;;;;5.13;3.25;;;12.00;99.90;;;;;;15604632;22;20152;-84
2022/04/13 03:10:05;;;;;;;5.75;3.38;;;11.90;99.90;;;;;;15607427;22;20104;-87
2022/04/13 03:16:07;;;;;;;7.25;3.10;;;11.80;99.90;;;;;;15611557;22;20027;-87
2022/04/13 03:22:09;;;;;;;10.02;3.25;;;11.80;99.90;;;;;;15613103;22;20023;-84
2022/04/13 03:28:19;;;;;;;7.95;3.47;;;11.90;99.90;;;;;;15615084;22;20443;-87
2022/04/13 03:34:21;;;;;;;5.57;3.42;;;11.90;99.90;;;;;;15638719;22;20092;-85
2022/04/13 03:40:27;;;;;;;3.97;2.70;;;11.80;99.90;;;;;;15641399;22;20043;-86
2022/04/13 03:46:29;;;;;;;5.32;3.20;;;11.80;99.90;;;;;;15638189;22;20019;-84
2022/04/13 03:52:33;;;;;;;5.40;2.30;;;11.90;99.90;;;;;;15641467;22;20023;-87
2022/04/13 03:58:35;;;;;;;5.68;2.90;;;11.70;99.90;;;;;;15612050;22;20028;-87
2022/04/13 04:04:36;;;;;;;5.80;3.50;;;11.40;99.90;;;;;;15640221;22;20558;-85
2022/04/13 04:10:38;;;;;;;5.43;2.70;;;11.50;99.90;;;;;;15614695;22;20019;-84
2022/04/13 04:16:40;;;;;;;5.00;2.75;;;11.50;99.90;;;;;;15619925;22;20096;-85
2022/04/13 04:22:42;;;;;;;6.30;2.72;;;11.60;99.90;;;;;;15667955;22;20063;-87
2022/04/13 04:28:44;;;;;;;5.35;2.50;;;11.30;99.90;;;;;;15665363;22;20023;-84
2022/04/13 04:34:46;;;;;;;5.47;2.80;;;11.20;99.90;;;;;;15647492;22;20061;-84
2022/04/13 04:40:48;;;;;;;5.72;2.75;;;11.20;99.90;;;;;;15617970;22;20041;-87
2022/04/13 04:46:49;;;;;;;5.10;2.90;;;11.20;99.90;;;;;;15611542;22;20050;-87
2022/04/13 04:52:51;;;;;;;6.50;3.00;;;11.40;99.90;;;;;;15604258;22;20042;-86
2022/04/13 04:58:53;;;;;;;9.27;3.50;;;11.50;99.90;;;;;;15608288;22;20126;-86
2022/04/13 05:05:00;;;;;;;6.55;3.67;;;11.30;99.90;;;;;;15605169;22;20023;-86
2022/04/13 05:11:03;;;;;;;7.20;3.10;;;11.30;99.90;;;;;;15605724;22;20051;-86
2022/04/13 05:17:04;;;;;;;7.65;4.22;;;11.10;99.90;;;;;;15604727;22;20050;-83
2022/04/13 05:23:07;;;;;;;8.13;3.63;;;11.00;99.90;;;;;;15634622;22;20019;-86
2022/04/13 05:29:08;;;;;;;7.25;3.70;;;11.00;99.90;;;;;;15611262;22;20466;-87
2022/04/13 05:35:10;;;;;;;6.68;3.65;;;11.30;99.90;;;;;;15632018;22;20146;-83
2022/04/13 05:41:12;;;;;;;6.18;3.47;;;11.50;99.90;;;;;;15633422;22;20019;-86
2022/04/13 05:47:14;;;;;;;8.40;3.80;;;11.60;99.90;;;;;;15604927;22;20468;-86
2022/04/13 05:53:16;;;;;;;6.90;3.88;;;11.90;99.90;;;;;;15630731;22;20072;-84
2022/04/13 05:59:18;;;;;;;7.72;4.20;;;12.20;99.90;;;;;;15631638;22;20027;-84
2022/04/13 06:05:21;;;;;;;9.20;4.10;;;12.50;99.90;;;;;;15608294;22;20104;-84
2022/04/13 06:11:23;;;;;;;8.53;4.60;;;12.80;99.90;;;;;;15604247;22;20027;-84
2022/04/13 06:17:25;;;;;;;9.57;4.03;;;13.00;99.90;;;;;;15605489;22;20412;-86
2022/04/13 06:23:26;;;;;;;7.93;3.95;;;13.10;99.90;;;;;;15603514;22;20023;-87
2022/04/13 06:29:28;;;;;;;8.10;3.75;;;13.10;99.90;;;;;;15604082;22;20085;-85
2022/04/13 06:35:30;;;;;;;6.85;3.88;;;13.20;99.90;;;;;;15605476;22;20520;-84
2022/04/13 06:41:32;;;;;;;7.13;2.90;;;13.40;99.90;;;;;;15604763;22;20023;-84
2022/04/13 06:47:34;;;;;;;6.78;3.72;;;13.50;99.90;;;;;;15641662;22;20076;-85
2022/04/13 06:53:36;;;;;;;8.43;3.83;;;13.70;99.90;;;;;;15631648;22;20356;-84
2022/04/13 06:59:38;;;;;;;6.35;3.40;;;13.90;99.90;;;;;;15605335;22;20027;-84
2022/04/13 07:05:40;;;;;;;7.82;3.60;;;13.80;99.90;;;;;;15631073;22;20020;-85
2022/04/13 07:11:42;;;;;;;4.78;3.20;;;14.00;99.90;;;;;;15651138;22;20234;-84
2022/04/13 07:17:45;;;;;;;6.43;4.03;;;14.30;99.90;;;;;;15609531;22;20156;-84
2022/04/13 07:23:47;;;;;;;5.82;3.53;;;14.40;99.90;;;;;;15648412;22;20011;-87
2022/04/13 07:29:48;;;;;;;7.65;5.05;;;14.20;99.90;;;;;;15654827;22;20027;-85
2022/04/13 07:35:50;;;;;;;8.07;3.45;;;14.20;99.90;;;;;;15638965;22;20141;-87
2022/04/13 07:41:54;;;;;;;8.45;4.13;;;14.30;99.90;;;;;;15607069;22;20030;-86
2022/04/13 07:47:57;;;;;;;8.07;3.75;;;14.70;99.90;;;;;;15642730;22;20329;-85
2022/04/13 07:54:01;;;;;;;7.13;3.53;;;14.70;99.90;;;;;;15615342;22;20460;-84
2022/04/13 08:00:04;;;;;;;8.00;4.00;;;15.00;99.90;;;;;;15637672;22;20562;-87
2022/04/13 08:06:07;;;;;;;8.57;3.83;;;15.30;99.90;;;;;;15633631;22;20023;-84
2022/04/13 08:12:09;;;;;;;8.35;4.45;;;15.50;99.90;;;;;;15609251;22;20031;-87
2022/04/13 08:18:10;;;;;;;7.57;3.80;;;15.60;99.90;;;;;;15609984;22;20141;-84
2022/04/13 08:24:13;;;;;;;7.05;4.05;;;15.70;99.90;;;;;;15636558;22;20050;-87
2022/04/13 08:30:15;;;;;;;6.82;3.58;;;16.00;99.90;;;;;;15607823;22;20026;-87
2022/04/13 08:36:17;;;;;;;11.13;4.10;;;16.30;99.90;;;;;;15611122;22;20058;-86
2022/04/13 08:42:43;;;;;;;7.75;4.10;;;16.50;99.90;;;;;;15632671;22;20063;-84
2022/04/13 08:48:47;;;;;;;7.80;4.00;;;16.80;99.90;;;;;;15607985;22;20015;-87
2022/04/13 08:55:05;;;;;;;10.75;4.93;;;17.10;99.90;;;;;;15609300;22;20157;-87
2022/04/13 09:01:25;;;;;;;6.95;3.70;;;17.30;99.90;;;;;;15610524;22;20022;-87
2022/04/13 09:07:31;;;;;;;8.98;4.70;;;17.50;99.90;;;;;;15610454;22;20032;-84
2022/04/13 09:13:34;;;;;;;10.82;4.30;;;17.80;99.90;;;;;;15611493;22;20034;-87
2022/04/13 09:19:37;;;;;;;8.63;4.25;;;17.90;99.90;;;;;;15606190;22;20074;-85
2022/04/13 09:25:40;;;;;;;11.05;3.22;;;18.60;99.90;;;;;;15635959;22;20047;-84
2022/04/13 09:31:42;;;;;;;11.80;3.47;;;18.80;99.90;;;;;;15632250;22;20919;-87
2022/04/13 09:37:44;;;;;;;6.05;3.25;;;19.00;99.90;;;;;;15610456;22;20249;-87
2022/04/13 09:43:54;;;;;;;8.27;3.05;;;19.20;99.90;;;;;;15609156;22;20030;-87
2022/04/13 09:49:56;;;;;;;5.85;3.17;;;19.60;99.90;;;;;;15608751;22;20024;-85
2022/04/13 09:56:02;;;;;;;13.95;3.80;;;19.90;99.90;;;;;;15604858;22;20413;-86
2022/04/13 10:02:04;;;;;;;12.40;3.33;;;20.10;99.90;;;;;;15609503;22;20015;-84
2022/04/13 10:08:08;;;;;;;9.27;3.15;;;20.20;99.90;;;;;;15604850;22;20027;-88
2022/04/13 10:14:10;;;;;;;10.00;3.67;;;20.40;99.90;;;;;;15608209;22;20093;-87
2022/04/13 10:20:12;;;;;;;11.80;3.70;;;20.60;99.90;;;;;;15604826;22;20470;-84
2022/04/13 10:26:14;;;;;;;12.48;3.85;;;20.60;99.90;;;;;;15629019;22;20112;-87
2022/04/13 10:32:18;;;;;;;12.02;3.50;;;20.50;99.90;;;;;;15632869;22;20034;-85
2022/04/13 10:38:21;;;;;;;12.35;3.97;;;20.90;99.90;;;;;;15604250;22;20077;-85
2022/04/13 10:45:02;;;;;;;9.73;3.60;;;21.10;99.90;;;;;;15605056;22;20019;-85
2022/04/13 10:51:11;;;;;;;10.75;3.35;;;20.90;99.90;;;;;;15541670;22;20047;-84
2022/04/13 10:57:13;;;;;;;9.30;3.42;;;20.70;99.90;;;;;;15604939;22;20127;-88
2022/04/13 11:03:17;;;;;;;9.82;3.70;;;20.60;99.90;;;;;;15605984;22;20054;-87
2022/04/13 11:09:26;;;;;;;12.25;3.35;;;20.60;99.90;;;;;;15605231;22;20027;-88
2022/04/13 11:15:45;;;;;;;13.88;3.42;;;21.30;99.90;;;;;;15636677;22;20034;-84
2022/04/13 11:21:53;;;;;;;8.23;3.53;;;22.10;99.90;;;;;;15636136;22;20027;-85
2022/04/13 11:27:56;;;;;;;9.18;3.17;;;22.00;99.90;;;;;;15638308;22;20452;-88
2022/04/13 11:33:58;;;;;;;8.60;3.25;;;22.10;99.90;;;;;;15603236;22;20019;-88
2022/04/13 11:40:06;;;;;;;6.68;2.25;;;22.40;99.90;;;;;;15612518;22;20027;-88
2022/04/13 11:46:28;;;;;;;10.48;3.40;;;22.70;99.90;;;;;;15616103;22;20034;-86
2022/04/13 11:52:55;;;;;;;9.32;3.13;;;22.40;99.90;;;;;;15642331;22;20027;-85
2022/04/13 11:58:57;;;;;;;9.57;3.10;;;22.30;99.90;;;;;;15643603;22;20019;-88
2022/04/13 12:04:59;;;;;;;10.75;3.33;;;22.30;99.90;;;;;;15642118;22;20023;-85
2022/04/13 12:11:06;;;;;;;9.97;3.80;;;22.40;99.90;;;;;;15638163;22;20022;-85
2022/04/13 12:17:07;;;;;;;12.02;2.92;;;22.60;99.90;;;;;;15612598;22;20019;-85
2022/04/13 12:23:25;;;;;;;15.35;3.53;;;22.70;99.90;;;;;;15639885;22;20134;-87
2022/04/13 12:29:29;;;;;;;13.43;3.40;;;22.90;99.90;;;;;;15622070;22;20488;-85
2022/04/13 12:35:49;;;;;;;13.60;3.22;;;22.80;99.90;;;;;;15631234;22;20552;-85
2022/04/13 12:41:51;;;;;;;13.38;3.20;;;23.10;99.90;;;;;;15673244;22;20011;-88
2022/04/13 12:47:52;;;;;;;10.25;3.05;;;23.00;99.90;;;;;;15638025;22;20096;-86
2022/04/13 12:53:57;;;;;;;9.20;3.13;;;22.80;99.90;;;;;;15620883;22;20023;-87
2022/04/13 12:59:59;;;;;;;9.55;3.15;;;22.80;99.90;;;;;;15653800;22;20008;-86
2022/04/13 13:06:08;;;;;;;10.32;3.17;;;22.80;99.90;;;;;;15653045;22;20805;-87
2022/04/13 13:12:17;;;;;;;11.18;2.63;;;22.60;99.90;;;;;;15619387;22;20023;-85
2022/04/13 13:18:19;;;;;;;16.08;3.22;;;22.20;99.90;;;;;;15624531;22;20057;-88
2022/04/13 13:24:29;;;;;;;10.98;2.97;;;21.80;99.90;;;;;;15650848;22;20027;-85
2022/04/13 13:30:39;;;;;;;11.82;3.10;;;21.80;99.90;;;;;;15609795;22;20030;-87
2022/04/13 13:36:55;;;;;;;13.23;3.45;;;21.90;99.90;;;;;;15611679;22;20407;-87
2022/04/13 13:42:57;;;;;;;13.07;3.28;;;21.90;99.90;;;;;;15633059;22;20097;-88
2022/04/13 13:49:03;;;;;;;14.80;3.73;;;21.80;99.90;;;;;;15609500;22;20149;-87
2022/04/13 13:55:06;;;;;;;10.73;3.35;;;22.20;99.90;;;;;;15638726;22;20451;-86
2022/04/13 14:01:08;;;;;;;17.02;3.80;;;22.20;99.90;;;;;;15629792;22;20050;-85
2022/04/13 14:07:10;;;;;;;14.75;3.60;;;22.00;99.90;;;;;;15606873;22;20042;-85
2022/04/13 14:13:16;;;;;;;9.30;3.60;;;22.00;99.90;;;;;;15604800;22;20128;-85
2022/04/13 14:19:18;;;;;;;9.40;4.03;;;22.00;99.90;;;;;;15607707;22;20433;-87
2022/04/13 14:25:20;;;;;;;12.70;3.30;;;22.20;99.90;;;;;;15628163;22;20031;-85
2022/04/13 14:31:22;;;;;;;12.70;4.47;;;22.50;99.90;;;;;;15629293;22;20027;-85
2022/04/13 14:37:24;;;;;;;9.20;3.80;;;22.10;99.90;;;;;;15603205;22;20019;-86
2022/04/13 14:43:26;;;;;;;13.90;5.43;;;22.00;99.90;;;;;;15605737;22;20102;-88
2022/04/13 14:49:27;;;;;;;11.27;4.22;;;21.80;99.90;;;;;;15629855;22;20061;-88
2022/04/13 14:55:29;;;;;;;10.95;4.47;;;21.90;99.90;;;;;;15605355;22;20078;-85
2022/04/13 15:01:31;;;;;;;16.45;5.10;;;21.90;99.90;;;;;;15603517;22;20065;-85
2022/04/13 15:07:39;;;;;;;19.02;4.78;;;21.70;99.90;;;;;;15604538;22;20030;-84
2022/04/13 15:13:41;;;;;;;15.60;4.80;;;21.80;99.90;;;;;;15608788;22;20031;-87
2022/04/13 15:19:42;;;;;;;8.43;4.10;;;21.60;99.90;;;;;;15612888;22;20229;-87
2022/04/13 15:25:46;;;;;;;13.20;4.57;;;21.40;99.90;;;;;;15635332;22;20031;-85
2022/04/13 15:31:47;;;;;;;11.70;4.20;;;21.50;99.90;;;;;;15611988;22;20392;-86
2022/04/13 15:37:49;;;;;;;14.40;4.85;;;21.20;99.90;;;;;;15612623;22;20023;-87
2022/04/13 15:43:54;;;;;;;10.63;4.43;;;20.90;99.90;;;;;;15609045;22;20031;-87
2022/04/13 15:49:56;;;;;;;10.20;4.50;;;20.80;99.90;;;;;;15610320;22;20027;-86
2022/04/13 15:55:58;;;;;;;11.25;4.88;;;20.60;99.90;;;;;;15611546;22;20157;-86
2022/04/13 16:01:59;;;;;;;9.15;4.22;;;20.70;99.90;;;;;;15612682;22;20023;-86
2022/04/13 16:08:02;;;;;;;9.05;4.07;;;20.50;99.90;;;;;;15643423;22;20031;-86
2022/04/13 16:14:04;;;;;;;12.52;4.18;;;20.50;99.90;;;;;;15610636;22;20023;-85
2022/04/13 16:20:07;;;;;;;8.35;3.30;;;20.40;99.90;;;;;;15615038;22;20026;-85
2022/04/13 16:26:09;;;;;;;;;;;20.20;99.90;;;;;;15637653;22;20108;-85
2022/04/13 16:32:11;;;;;;;12.98;4.45;;;20.00;99.90;;;;;;15633996;22;19976;-85
2022/04/13 16:38:14;;;;;;;7.68;3.33;;;19.80;99.90;;;;;;15607487;22;20105;-87
2022/04/13 16:44:28;;;;;;;10.50;3.85;;;19.70;99.90;;;;;;15639974;22;20102;-87
2022/04/13 16:50:30;;;;;;;11.65;3.10;;;19.60;99.90;;;;;;15608529;22;20364;-85
2022/04/13 16:56:34;;;;;;;12.30;3.22;;;19.40;99.90;;;;;;15632240;22;20157;-86
2022/04/13 17:02:36;;;;;;;9.80;3.30;;;19.20;99.90;;;;;;15599463;22;20098;-86
2022/04/13 17:08:38;;;;;;;8.60;3.40;;;19.10;99.90;;;;;;15611374;22;20423;-86
2022/04/13 17:14:40;;;;;;;6.32;3.28;;;19.00;99.90;;;;;;15605765;22;20550;-86
2022/04/13 17:20:42;;;;;;;10.55;3.20;;;18.80;99.90;;;;;;15631875;22;20573;-87
2022/04/13 17:26:45;;;;;;;6.82;3.25;;;18.60;99.90;;;;;;15608372;22;20088;-85
2022/04/13 17:32:47;;;;;;;8.50;3.20;;;18.50;99.90;;;;;;15607994;22;20127;-84
2022/04/13 17:38:49;;;;;;;7.50;2.80;;;18.30;99.90;;;;;;15607894;22;20555;-84
2022/04/13 17:44:51;;;;;;;7.68;3.25;;;18.10;99.90;;;;;;15636285;22;20121;-85
2022/04/13 17:50:53;;;;;;;6.78;3.58;;;18.00;99.90;;;;;;15641604;22;20089;-86
2022/04/13 17:56:55;;;;;;;9.27;3.72;;;17.90;99.90;;;;;;15622208;22;20040;-85
2022/04/13 18:02:57;;;;;;;8.93;4.50;;;17.80;99.90;;;;;;15608550;22;20058;-86
2022/04/13 18:08:59;;;;;;;11.70;4.13;;;17.60;99.90;;;;;;15615483;22;20359;-84
2022/04/13 18:15:01;;;;;;;10.15;5.43;;;17.50;99.90;;;;;;15605500;22;20089;-84
2022/04/13 18:21:03;;;;;;;10.98;6.00;;;17.40;99.90;;;;;;15632500;22;20102;-84
2022/04/13 18:27:05;;;;;;;12.10;5.72;;;17.20;99.90;;;;;;15601378;22;20055;-86
2022/04/13 18:33:06;;;;;;;10.32;6.22;;;17.00;99.90;;;;;;15635271;22;20172;-86
2022/04/13 18:39:08;;;;;;;14.77;6.47;;;16.80;99.90;;;;;;15605407;22;20102;-84
2022/04/13 18:45:10;;;;;;;9.90;6.35;;;16.60;99.90;;;;;;15632941;22;20027;-87
2022/04/13 18:51:12;;;;;;;11.82;6.25;;;16.40;99.90;;;;;;15603912;22;20042;-86
2022/04/13 18:57:15;;;;;;;12.48;6.85;;;16.30;99.90;;;;;;15606167;22;20023;-84
2022/04/13 19:03:19;;;;;;;13.63;7.10;;;16.20;99.90;;;;;;15605570;22;20106;-87
2022/04/13 19:09:21;;;;;;;13.75;7.82;;;16.00;99.90;;;;;;15606865;22;20128;-87
2022/04/13 19:15:23;;;;;;;12.35;6.18;;;15.90;99.90;;;;;;15632037;22;20492;-87
2022/04/13 19:21:25;;;;;;;11.52;6.60;;;15.70;99.90;;;;;;15604475;22;20023;-87
2022/04/13 19:27:27;;;;;;;10.13;6.60;;;15.80;99.90;;;;;;15607566;22;20047;-84
2022/04/13 19:33:29;;;;;;;14.43;7.13;;;15.60;99.90;;;;;;15606450;22;20129;-87
2022/04/13 19:39:30;;;;;;;10.38;6.65;;;15.50;99.90;;;;;;15604160;22;20102;-84
2022/04/13 19:45:32;;;;;;;12.88;6.95;;;15.40;99.90;;;;;;15607327;22;20030;-88
2022/04/13 19:51:35;;;;;;;11.25;7.10;;;15.40;99.90;;;;;;15632568;22;20027;-85
2022/04/13 19:57:37;;;;;;;11.98;7.68;;;15.30;99.90;;;;;;15634754;22;20058;-85
2022/04/13 20:03:41;;;;;;;11.73;6.50;;;15.20;99.90;;;;;;15615807;22;20092;-84
2022/04/13 20:09:44;;;;;;;10.50;6.45;;;15.20;99.90;;;;;;15616782;22;20092;-85
2022/04/13 20:15:45;;;;;;;11.90;6.63;;;15.20;99.90;;;;;;15617247;22;20043;-88
2022/04/13 20:21:47;;;;;;;10.30;5.43;;;15.10;99.90;;;;;;15611854;22;20382;-84
2022/04/13 20:27:49;;;;;;;10.40;5.47;;;15.10;99.90;;;;;;15616820;22;20024;-84
2022/04/13 20:33:51;;;;;;;8.18;4.70;;;15.10;99.90;;;;;;15612521;22;20532;-84
2022/04/13 20:39:53;;;;;;;7.18;4.88;;;15.00;99.90;;;;;;15610830;22;20700;-86
2022/04/13 20:45:54;;;;;;;11.00;4.72;;;15.00;99.90;;;;;;15613437;22;20027;-87
2022/04/13 20:51:57;;;;;;;7.05;4.45;;;14.90;99.90;;;;;;15635332;22;20460;-85
2022/04/13 20:57:58;;;;;;;10.73;5.57;;;14.80;99.90;;;;;;15655756;22;20089;-85
2022/04/13 21:04:00;;;;;;;10.43;5.18;;;14.90;99.90;;;;;;15644940;22;20027;-86
2022/04/13 21:10:04;;;;;;;12.18;5.43;;;14.70;99.90;;;;;;15647123;22;20093;-86
2022/04/13 21:16:06;;;;;;;14.03;5.30;;;14.70;99.90;;;;;;15609040;22;20019;-86
2022/04/13 21:22:08;;;;;;;9.75;5.63;;;14.70;99.90;;;;;;15608730;22;20340;-86
2022/04/13 21:28:10;;;;;;;11.35;5.32;;;14.60;99.90;;;;;;15606133;22;20019;-84
2022/04/13 21:34:12;;;;;;;13.38;5.40;;;14.40;99.90;;;;;;15607682;22;20530;-86
2022/04/13 21:40:14;;;;;;;10.98;5.47;;;14.50;99.90;;;;;;15627540;22;20047;-85
2022/04/13 21:46:16;;;;;;;8.65;5.47;;;14.40;99.90;;;;;;15605867;22;20027;-86
2022/04/13 21:52:18;;;;;;;11.68;5.75;;;14.40;99.90;;;;;;15635506;22;20122;-84
2022/04/13 21:58:20;;;;;;;12.95;5.63;;;14.50;99.90;;;;;;15631625;22;20047;-87
2022/04/13 22:04:21;;;;;;;10.52;5.25;;;14.30;99.90;;;;;;15605321;22;20281;-86
2022/04/13 22:10:24;;;;;;;14.45;5.45;;;14.30;99.90;;;;;;15603986;22;20406;-84
2022/04/13 22:16:26;;;;;;;8.88;4.90;;;14.30;99.90;;;;;;15605962;22;20066;-85
2022/04/13 22:22:29;;;;;;;10.77;3.67;;;14.30;99.90;;;;;;15604059;22;20486;-84
2022/04/13 22:28:33;;;;;;;6.07;3.30;;;14.30;99.90;;;;;;15630466;22;20065;-84
2022/04/13 22:34:35;;;;;;;8.85;3.95;;;14.20;99.90;;;;;;15602325;22;20080;-86
2022/04/13 22:40:36;;;;;;;8.05;4.00;;;14.00;99.90;;;;;;15606043;22;20038;-87
2022/04/13 22:46:38;;;;;;;7.93;3.80;;;13.80;99.90;;;;;;15629770;22;20157;-84
2022/04/13 22:52:40;;;;;;;7.50;4.10;;;13.90;99.90;;;;;;15634509;22;20023;-86
2022/04/13 22:58:42;;;;;;;8.65;4.07;;;13.80;99.90;;;;;;15602855;22;20031;-84
2022/04/13 23:04:44;;;;;;;10.55;4.45;;;13.70;99.90;;;;;;15600317;22;20078;-86
2022/04/13 23:10:49;;;;;;;12.02;5.10;;;13.70;99.90;;;;;;15629581;22;20099;-84
2022/04/13 23:16:52;;;;;;;10.63;4.95;;;13.70;99.90;;;;;;15633866;22;20063;-86
2022/04/13 23:22:54;;;;;;;8.80;4.80;;;13.60;99.90;;;;;;15605861;22;20065;-84
2022/04/13 23:28:56;;;;;;;9.57;4.90;;;13.60;99.90;;;;;;15606639;22;20352;-86
2022/04/13 23:34:58;;;;;;;10.02;4.72;;;13.40;99.90;;;;;;15604599;22;20467;-84
2022/04/13 23:41:00;;;;;;;8.88;4.80;;;13.50;99.90;;;;;;15637563;22;20355;-86
2022/04/13 23:47:04;;;;;;;9.20;5.20;;;13.40;99.90;;;;;;15606397;22;20051;-86
2022/04/13 23:53:06;;;;;;;;;;;13.40;99.90;;;;;;15637387;22;20019;-84
2022/04/13 23:59:08;;;;;;;9.35;5.45;;;13.30;99.90;;;;;;15608917;22;19918;-86
